Time;durP1;ratioP1;P1;durP2;ratioP2;P2;SDS_P1;SDS_P2;PMS_P1;PMS_P2;Temp;Humidity;BMP_temperature;BMP_pressure;BME280_temperature;BME280_humidity;BME280_pressure;Samples;Min_cycle;Max_cycle;Signal;HPM_P1;HPM_P2
2021/06/16 00:00:03;;;;;;;10.77;8.18;;;;;;;;;;5010815;28;20438;-83
2021/06/16 00:02:30;;;;;;;10.20;8.50;;;;;;;;;;5015493;28;20500;-83
2021/06/16 00:04:57;;;;;;;10.45;8.70;;;;;;;;;;5009731;28;20411;-83
2021/06/16 00:07:24;;;;;;;14.23;8.70;;;;;;;;;;5012490;28;20491;-84
2021/06/16 00:09:53;;;;;;;13.07;8.50;;;;;;;;;;5013317;28;20467;-83
2021/06/16 00:12:21;;;;;;;13.13;9.00;;;;;;;;;;5009923;28;20435;-83
2021/06/16 00:14:48;;;;;;;10.95;8.65;;;;;;;;;;5010172;28;20415;-84
2021/06/16 00:17:15;;;;;;;10.95;8.77;;;;;;;;;;5013055;28;20460;-83
2021/06/16 00:19:42;;;;;;;10.43;8.32;;;;;;;;;;5010483;28;20418;-83
2021/06/16 00:22:10;;;;;;;11.25;8.50;;;;;;;;;;5011921;28;20495;-82
2021/06/16 00:24:37;;;;;;;11.17;8.90;;;;;;;;;;5011552;28;20482;-83
2021/06/16 00:27:07;;;;;;;13.52;9.02;;;;;;;;;;5006201;28;20402;-83
2021/06/16 00:29:34;;;;;;;12.95;9.00;;;;;;;;;;5011879;28;20825;-83
2021/06/16 00:32:01;;;;;;;10.82;8.60;;;;;;;;;;5008312;28;20403;-82
2021/06/16 00:34:28;;;;;;;15.73;8.57;;;;;;;;;;5005333;28;20434;-83
2021/06/16 00:36:55;;;;;;;11.05;8.52;;;;;;;;;;5007158;28;20958;-83
2021/06/16 00:39:23;;;;;;;14.70;10.15;;;;;;;;;;5008635;28;20433;-83
2021/06/16 00:41:50;;;;;;;12.85;10.38;;;;;;;;;;5011442;28;20498;-83
2021/06/16 00:44:18;;;;;;;11.52;10.25;;;;;;;;;;5008328;28;20429;-83
2021/06/16 00:46:46;;;;;;;11.32;10.18;;;;;;;;;;5011113;28;20452;-82
2021/06/16 00:49:13;;;;;;;16.00;11.45;;;;;;;;;;5006213;28;20461;-82
2021/06/16 00:51:40;;;;;;;13.57;12.20;;;;;;;;;;5011642;28;20490;-83
2021/06/16 00:54:10;;;;;;;14.93;12.25;;;;;;;;;;5011254;28;20925;-82
2021/06/16 00:56:39;;;;;;;15.43;13.20;;;;;;;;;;5008026;28;20426;-83
2021/06/16 00:59:07;;;;;;;15.65;13.85;;;;;;;;;;5009839;28;20472;-82
2021/06/16 01:01:41;;;;;;;15.38;13.68;;;;;;;;;;5015021;28;20417;-83
2021/06/16 01:04:14;;;;;;;17.00;14.52;;;;;;;;;;5010464;28;20415;-83
2021/06/16 01:06:44;;;;;;;16.10;13.85;;;;;;;;;;5008445;28;20413;-83
2021/06/16 01:09:16;;;;;;;16.73;13.73;;;;;;;;;;5014465;28;20428;-83
2021/06/16 01:11:57;;;;;;;15.68;13.68;;;;;;;;;;5010841;28;20415;-83
2021/06/16 01:14:34;;;;;;;16.35;13.30;;;;;;;;;;5008677;28;20403;-83
2021/06/16 01:17:05;;;;;;;17.02;13.43;;;;;;;;;;5021130;28;20815;-83
2021/06/16 01:19:54;;;;;;;14.68;13.02;;;;;;;;;;5015629;28;20763;-82
2021/06/16 01:22:36;;;;;;;15.05;12.85;;;;;;;;;;5010738;28;20498;-81
2021/06/16 01:25:08;;;;;;;15.45;12.82;;;;;;;;;;5011035;28;20423;-82
2021/06/16 01:27:37;;;;;;;14.75;13.10;;;;;;;;;;5015148;28;20407;-84
2021/06/16 01:30:06;;;;;;;15.13;13.10;;;;;;;;;;5010838;28;20403;-84
2021/06/16 01:32:33;;;;;;;16.50;13.40;;;;;;;;;;5012594;28;20399;-83
2021/06/16 01:35:01;;;;;;;16.67;13.40;;;;;;;;;;5009734;28;20509;-84
2021/06/16 01:37:29;;;;;;;16.25;13.05;;;;;;;;;;5013637;28;20434;-84
2021/06/16 01:39:57;;;;;;;14.80;12.80;;;;;;;;;;5013029;28;20548;-84
2021/06/16 01:42:26;;;;;;;15.48;12.98;;;;;;;;;;5009598;28;20407;-82
2021/06/16 01:44:57;;;;;;;17.23;13.33;;;;;;;;;;5010867;28;20417;-84
2021/06/16 01:47:25;;;;;;;14.45;12.90;;;;;;;;;;5010567;28;20414;-83
2021/06/16 01:49:54;;;;;;;14.00;12.50;;;;;;;;;;5016498;28;20977;-83
2021/06/16 01:52:22;;;;;;;16.58;12.82;;;;;;;;;;5013807;28;20410;-84
2021/06/16 01:54:50;;;;;;;14.07;12.68;;;;;;;;;;5008611;28;20981;-82
2021/06/16 01:57:25;;;;;;;14.40;12.90;;;;;;;;;;5009973;28;20407;-82
2021/06/16 02:00:01;;;;;;;14.90;13.20;;;;;;;;;;5012358;28;20435;-83
2021/06/16 02:02:28;;;;;;;14.15;12.73;;;;;;;;;;5019336;28;20413;-84
2021/06/16 02:04:55;;;;;;;14.27;12.63;;;;;;;;;;5019367;28;20405;-84
2021/06/16 02:07:28;;;;;;;16.08;12.98;;;;;;;;;;5018906;28;20403;-83
2021/06/16 02:09:56;;;;;;;14.77;13.23;;;;;;;;;;5020616;28;20763;-84
2021/06/16 02:12:24;;;;;;;16.25;13.43;;;;;;;;;;5017993;28;20414;-84
2021/06/16 02:14:54;;;;;;;14.63;13.05;;;;;;;;;;5018726;28;20412;-83
2021/06/16 02:17:25;;;;;;;16.38;13.63;;;;;;;;;;5017775;28;20405;-84
2021/06/16 02:19:54;;;;;;;14.70;12.85;;;;;;;;;;5016490;28;20411;-83
2021/06/16 02:22:21;;;;;;;14.10;12.68;;;;;;;;;;5018205;28;20415;-84
2021/06/16 02:24:48;;;;;;;14.48;12.80;;;;;;;;;;5018187;28;20887;-83
2021/06/16 02:27:15;;;;;;;14.35;12.85;;;;;;;;;;5015409;28;20413;-84
2021/06/16 02:29:42;;;;;;;14.30;12.82;;;;;;;;;;5018258;28;20429;-83
2021/06/16 02:32:10;;;;;;;17.60;13.40;;;;;;;;;;5016782;28;20556;-84
2021/06/16 02:34:38;;;;;;;16.48;13.45;;;;;;;;;;5019687;28;20410;-84
2021/06/16 02:37:13;;;;;;;16.00;13.15;;;;;;;;;;5020273;28;20426;-84
2021/06/16 02:39:45;;;;;;;16.00;13.07;;;;;;;;;;5022968;28;20939;-85
2021/06/16 02:42:12;;;;;;;16.10;13.25;;;;;;;;;;5019889;28;20767;-84
2021/06/16 02:44:43;;;;;;;16.10;12.90;;;;;;;;;;5024265;28;20413;-84
2021/06/16 02:47:10;;;;;;;15.50;13.43;;;;;;;;;;5027535;28;20472;-83
2021/06/16 02:49:42;;;;;;;15.32;12.63;;;;;;;;;;5029901;28;20480;-83
2021/06/16 02:52:10;;;;;;;14.00;12.40;;;;;;;;;;5017221;28;20419;-84
2021/06/16 02:54:38;;;;;;;15.32;13.15;;;;;;;;;;5029259;28;20411;-83
2021/06/16 02:57:07;;;;;;;14.20;12.70;;;;;;;;;;5022603;28;20421;-84
2021/06/16 02:59:35;;;;;;;13.88;12.18;;;;;;;;;;5032384;28;20457;-84
2021/06/16 03:02:03;;;;;;;15.35;12.98;;;;;;;;;;5036332;28;20393;-84
2021/06/16 03:04:31;;;;;;;17.45;12.77;;;;;;;;;;5039059;28;20419;-84
2021/06/16 03:07:03;;;;;;;16.35;13.52;;;;;;;;;;5029108;28;20406;-83
2021/06/16 03:09:31;;;;;;;14.77;12.82;;;;;;;;;;5026397;28;20650;-83
2021/06/16 03:12:00;;;;;;;15.80;13.20;;;;;;;;;;5033874;28;20885;-83
2021/06/16 03:14:27;;;;;;;14.77;12.95;;;;;;;;;;5017394;28;20409;-83
2021/06/16 03:16:55;;;;;;;17.35;13.38;;;;;;;;;;5022708;28;20433;-84
2021/06/16 03:19:23;;;;;;;15.10;13.50;;;;;;;;;;5027535;28;20403;-84
2021/06/16 03:21:51;;;;;;;16.52;13.95;;;;;;;;;;5015006;28;20409;-82
2021/06/16 03:24:22;;;;;;;14.20;12.73;;;;;;;;;;5008789;28;20399;-84
2021/06/16 03:26:50;;;;;;;15.10;13.35;;;;;;;;;;5013274;28;20405;-82
2021/06/16 03:29:19;;;;;;;13.57;12.20;;;;;;;;;;5011118;28;20495;-86
2021/06/16 03:31:47;;;;;;;15.38;12.68;;;;;;;;;;5015282;28;20404;-84
2021/06/16 03:34:14;;;;;;;14.07;12.52;;;;;;;;;;5014269;28;21558;-83
2021/06/16 03:36:43;;;;;;;15.43;12.77;;;;;;;;;;5010618;28;20438;-84
2021/06/16 03:39:10;;;;;;;13.52;12.18;;;;;;;;;;5012601;28;20413;-83
2021/06/16 03:41:40;;;;;;;15.32;12.80;;;;;;;;;;5012260;28;20411;-83
2021/06/16 03:44:08;;;;;;;13.57;12.18;;;;;;;;;;5010187;28;20405;-84
2021/06/16 03:46:39;;;;;;;15.60;12.95;;;;;;;;;;5010274;28;20418;-83
2021/06/16 03:49:09;;;;;;;15.10;13.15;;;;;;;;;;5010716;28;20397;-84
2021/06/16 03:51:37;;;;;;;14.90;12.43;;;;;;;;;;5019131;28;20397;-83
2021/06/16 03:54:11;;;;;;;15.02;12.82;;;;;;;;;;5019122;28;20753;-84
2021/06/16 03:56:41;;;;;;;15.98;12.63;;;;;;;;;;5019337;28;20432;-83
2021/06/16 03:59:09;;;;;;;14.32;12.90;;;;;;;;;;5020304;28;20766;-83
2021/06/16 04:01:38;;;;;;;15.60;13.50;;;;;;;;;;5020241;28;20401;-84
2021/06/16 04:04:06;;;;;;;14.95;13.18;;;;;;;;;;5016479;28;20420;-83
2021/06/16 04:06:34;;;;;;;16.73;14.20;;;;;;;;;;5026092;28;20416;-83
2021/06/16 04:09:02;;;;;;;15.35;13.75;;;;;;;;;;5009641;28;20395;-84
2021/06/16 04:11:29;;;;;;;16.30;13.83;;;;;;;;;;5011943;28;20902;-84
2021/06/16 04:13:58;;;;;;;16.02;14.43;;;;;;;;;;5011839;28;20412;-83
2021/06/16 04:16:25;;;;;;;15.93;14.10;;;;;;;;;;5016864;28;20435;-84
2021/06/16 04:18:52;;;;;;;17.27;14.40;;;;;;;;;;5013902;28;20857;-83
2021/06/16 04:21:21;;;;;;;16.92;14.50;;;;;;;;;;5015735;28;21235;-84
2021/06/16 04:23:48;;;;;;;17.00;14.85;;;;;;;;;;5012475;28;21052;-82
2021/06/16 04:26:15;;;;;;;19.05;14.68;;;;;;;;;;5011871;28;20407;-84
2021/06/16 04:28:42;;;;;;;19.42;14.80;;;;;;;;;;5011924;28;20414;-82
2021/06/16 04:31:11;;;;;;;21.03;15.53;;;;;;;;;;5009882;28;20403;-82
2021/06/16 04:33:38;;;;;;;21.20;15.40;;;;;;;;;;5011407;28;20401;-83
2021/06/16 04:36:07;;;;;;;19.00;15.07;;;;;;;;;;5009462;28;20411;-83
2021/06/16 04:38:34;;;;;;;17.77;15.18;;;;;;;;;;5009498;28;20442;-83
2021/06/16 04:41:02;;;;;;;19.43;15.60;;;;;;;;;;5009947;28;20403;-83
2021/06/16 04:43:30;;;;;;;17.55;15.02;;;;;;;;;;5009479;28;20526;-83
2021/06/16 04:45:57;;;;;;;19.20;15.63;;;;;;;;;;5015128;28;20407;-83
2021/06/16 04:48:25;;;;;;;17.95;15.80;;;;;;;;;;5011426;28;20869;-83
2021/06/16 04:50:52;;;;;;;18.47;15.53;;;;;;;;;;5012750;28;20433;-84
2021/06/16 04:53:19;;;;;;;18.23;14.93;;;;;;;;;;5010862;28;20406;-83
2021/06/16 04:55:46;;;;;;;21.23;15.68;;;;;;;;;;5011640;28;20416;-83
2021/06/16 04:58:13;;;;;;;16.90;14.85;;;;;;;;;;5016081;28;20420;-83
2021/06/16 05:00:42;;;;;;;18.70;14.73;;;;;;;;;;5014324;28;20908;-83
2021/06/16 05:03:09;;;;;;;16.30;14.55;;;;;;;;;;5009119;28;20418;-83
2021/06/16 05:05:37;;;;;;;18.80;14.45;;;;;;;;;;5009068;28;20760;-83
2021/06/16 05:08:05;;;;;;;17.88;14.57;;;;;;;;;;5009476;28;20414;-83
2021/06/16 05:10:32;;;;;;;19.50;14.40;;;;;;;;;;5009603;28;20515;-86
2021/06/16 05:12:59;;;;;;;15.30;13.70;;;;;;;;;;5009811;28;20424;-82
2021/06/16 05:15:26;;;;;;;16.75;13.70;;;;;;;;;;5010275;28;20401;-82
2021/06/16 05:17:53;;;;;;;20.05;14.18;;;;;;;;;;5012103;28;21054;-81
2021/06/16 05:20:21;;;;;;;16.95;14.30;;;;;;;;;;5013993;28;20418;-83
2021/06/16 05:22:50;;;;;;;16.63;14.65;;;;;;;;;;5013870;28;20490;-83
2021/06/16 05:25:19;;;;;;;16.42;13.95;;;;;;;;;;5012647;28;20918;-82
2021/06/16 05:27:46;;;;;;;17.77;14.65;;;;;;;;;;5010289;28;20898;-83
2021/06/16 05:30:14;;;;;;;15.77;14.00;;;;;;;;;;5010012;28;20414;-82
2021/06/16 05:32:41;;;;;;;17.00;14.48;;;;;;;;;;5009578;28;20474;-82
2021/06/16 05:35:09;;;;;;;17.30;13.93;;;;;;;;;;5009622;28;20504;-84
2021/06/16 05:37:36;;;;;;;14.95;13.35;;;;;;;;;;5009560;28;20423;-81
2021/06/16 05:40:06;;;;;;;14.40;12.85;;;;;;;;;;5013240;28;20414;-82
2021/06/16 05:42:33;;;;;;;15.93;13.55;;;;;;;;;;5007027;28;20996;-83
2021/06/16 05:45:00;;;;;;;15.38;13.38;;;;;;;;;;5012341;28;20410;-83
2021/06/16 05:47:27;;;;;;;15.20;13.13;;;;;;;;;;5011776;28;20407;-83
2021/06/16 05:49:54;;;;;;;17.55;12.88;;;;;;;;;;5017021;28;20410;-83
2021/06/16 05:52:21;;;;;;;14.38;12.93;;;;;;;;;;5017027;28;20489;-81
2021/06/16 05:54:48;;;;;;;17.27;13.75;;;;;;;;;;5017219;28;20770;-83
2021/06/16 05:57:17;;;;;;;18.50;14.43;;;;;;;;;;5017561;28;20438;-82
2021/06/16 05:59:43;;;;;;;15.40;13.80;;;;;;;;;;5021254;28;20889;-84
2021/06/16 06:02:10;;;;;;;17.90;14.07;;;;;;;;;;5019387;28;20413;-83
2021/06/16 06:04:39;;;;;;;16.52;14.65;;;;;;;;;;5016968;28;20412;-85
2021/06/16 06:07:06;;;;;;;16.65;14.70;;;;;;;;;;5011294;28;20395;-83
2021/06/16 06:09:33;;;;;;;16.33;14.15;;;;;;;;;;5017656;28;20738;-83
2021/06/16 06:12:00;;;;;;;19.97;13.70;;;;;;;;;;5019710;28;20958;-84
2021/06/16 06:14:28;;;;;;;17.58;13.60;;;;;;;;;;5012790;28;20409;-82
2021/06/16 06:16:55;;;;;;;17.33;14.33;;;;;;;;;;5018892;28;20993;-83
2021/06/16 06:19:22;;;;;;;18.70;13.90;;;;;;;;;;5016782;28;20407;-84
2021/06/16 06:21:49;;;;;;;20.65;13.75;;;;;;;;;;5018727;28;20771;-83
2021/06/16 06:24:16;;;;;;;15.95;13.95;;;;;;;;;;5017381;28;20398;-84
2021/06/16 06:26:43;;;;;;;17.20;14.15;;;;;;;;;;5017845;28;20403;-82
2021/06/16 06:29:10;;;;;;;16.13;13.45;;;;;;;;;;5012334;28;20863;-83
2021/06/16 06:31:39;;;;;;;15.95;12.55;;;;;;;;;;5011557;28;20399;-83
2021/06/16 06:34:06;;;;;;;17.23;12.70;;;;;;;;;;5012053;28;20934;-84
2021/06/16 06:36:33;;;;;;;14.50;11.93;;;;;;;;;;5017883;28;20939;-83
2021/06/16 06:39:01;;;;;;;14.70;11.57;;;;;;;;;;5016726;28;20413;-83
2021/06/16 06:41:28;;;;;;;13.98;11.45;;;;;;;;;;5010511;28;20485;-83
2021/06/16 06:43:55;;;;;;;12.43;11.13;;;;;;;;;;5015651;28;20418;-83
2021/06/16 06:46:22;;;;;;;15.27;11.48;;;;;;;;;;5018595;28;20395;-84
2021/06/16 06:48:50;;;;;;;17.48;11.30;;;;;;;;;;5016570;28;20408;-84
2021/06/16 06:51:17;;;;;;;13.85;11.32;;;;;;;;;;5019023;28;20404;-83
2021/06/16 06:53:44;;;;;;;18.23;11.43;;;;;;;;;;5017101;28;20413;-83
2021/06/16 06:56:11;;;;;;;15.50;11.57;;;;;;;;;;5017823;28;20397;-84
2021/06/16 06:58:38;;;;;;;16.52;11.38;;;;;;;;;;5016989;28;21140;-83
2021/06/16 07:01:05;;;;;;;15.75;11.40;;;;;;;;;;5010254;28;20751;-83
2021/06/16 07:03:33;;;;;;;14.30;11.10;;;;;;;;;;5009819;28;20406;-84
2021/06/16 07:06:01;;;;;;;17.67;10.93;;;;;;;;;;5009643;28;20760;-83
2021/06/16 07:08:28;;;;;;;15.85;11.80;;;;;;;;;;5009964;28;20417;-83
2021/06/16 07:10:55;;;;;;;15.63;11.60;;;;;;;;;;5018505;28;20759;-83
2021/06/16 07:13:22;;;;;;;17.88;11.95;;;;;;;;;;5014965;28;20407;-85
2021/06/16 07:15:49;;;;;;;14.13;12.35;;;;;;;;;;5012257;28;20401;-84
2021/06/16 07:18:16;;;;;;;15.65;12.15;;;;;;;;;;5018073;28;20417;-83
2021/06/16 07:20:43;;;;;;;20.98;11.35;;;;;;;;;;5016544;28;20495;-84
2021/06/16 07:23:12;;;;;;;15.73;11.48;;;;;;;;;;5017606;28;20735;-83
2021/06/16 07:25:39;;;;;;;16.77;11.82;;;;;;;;;;5017374;28;20401;-83
2021/06/16 07:28:06;;;;;;;14.40;10.85;;;;;;;;;;5016429;28;20504;-82
2021/06/16 07:30:33;;;;;;;14.95;11.20;;;;;;;;;;5017426;28;20880;-84
2021/06/16 07:33:01;;;;;;;15.95;12.43;;;;;;;;;;5014251;28;20429;-83
2021/06/16 07:35:29;;;;;;;16.08;11.10;;;;;;;;;;5009927;28;20423;-82
2021/06/16 07:37:56;;;;;;;14.32;11.20;;;;;;;;;;5017826;28;20427;-83
2021/06/16 07:40:24;;;;;;;19.85;12.15;;;;;;;;;;5016418;28;20407;-84
2021/06/16 07:42:51;;;;;;;15.15;11.60;;;;;;;;;;5017214;28;20449;-83
2021/06/16 07:45:18;;;;;;;19.65;12.20;;;;;;;;;;5017235;28;20426;-81
2021/06/16 07:47:45;;;;;;;17.23;12.70;;;;;;;;;;5011570;28;20883;-82
2021/06/16 07:50:13;;;;;;;19.20;13.15;;;;;;;;;;5010559;28;20903;-83
2021/06/16 07:52:40;;;;;;;17.83;12.38;;;;;;;;;;5017554;28;20407;-82
2021/06/16 07:55:08;;;;;;;15.85;11.65;;;;;;;;;;5022267;28;20417;-83
2021/06/16 07:57:37;;;;;;;12.93;10.55;;;;;;;;;;5024446;28;20399;-82
2021/06/16 08:00:06;;;;;;;16.50;11.27;;;;;;;;;;5015119;28;20832;-83
2021/06/16 08:02:32;;;;;;;16.83;12.73;;;;;;;;;;5010236;28;20419;-84
2021/06/16 08:04:59;;;;;;;16.75;13.50;;;;;;;;;;5014789;28;20407;-82
2021/06/16 08:07:26;;;;;;;14.27;12.15;;;;;;;;;;5016709;28;20407;-83
2021/06/16 08:09:53;;;;;;;14.57;11.15;;;;;;;;;;5015334;28;20405;-83
2021/06/16 08:12:20;;;;;;;17.27;11.98;;;;;;;;;;5015170;28;20399;-83
2021/06/16 08:14:48;;;;;;;16.92;12.38;;;;;;;;;;5015717;28;20414;-83
2021/06/16 08:17:15;;;;;;;13.63;10.93;;;;;;;;;;5014258;28;20426;-83
2021/06/16 08:19:43;;;;;;;14.60;12.20;;;;;;;;;;5016583;28;20405;-84
2021/06/16 08:22:12;;;;;;;15.50;12.25;;;;;;;;;;5012409;28;20425;-84
2021/06/16 08:24:39;;;;;;;14.85;11.32;;;;;;;;;;5013233;28;20411;-84
2021/06/16 08:27:09;;;;;;;15.35;10.27;;;;;;;;;;5004723;28;20429;-83
2021/06/16 08:29:36;;;;;;;13.82;12.30;;;;;;;;;;5008948;28;20450;-82
2021/06/16 08:32:06;;;;;;;13.20;10.75;;;;;;;;;;5005564;28;20756;-84
2021/06/16 08:34:35;;;;;;;14.93;12.70;;;;;;;;;;5009825;28;20417;-84
2021/06/16 08:37:03;;;;;;;16.85;11.82;;;;;;;;;;5009014;28;20413;-84
2021/06/16 08:39:30;;;;;;;14.82;12.98;;;;;;;;;;5005379;28;20406;-85
2021/06/16 08:41:57;;;;;;;13.68;11.52;;;;;;;;;;5007172;28;20412;-82
2021/06/16 08:44:24;;;;;;;15.10;10.90;;;;;;;;;;5009124;28;20413;-84
2021/06/16 08:46:51;;;;;;;13.05;10.90;;;;;;;;;;5011044;28;20608;-83
2021/06/16 08:49:20;;;;;;;14.88;12.10;;;;;;;;;;5009575;28;20412;-83
2021/06/16 08:51:47;;;;;;;12.88;11.48;;;;;;;;;;5013648;28;20422;-84
2021/06/16 08:54:14;;;;;;;13.95;11.32;;;;;;;;;;5016880;28;20412;-82
2021/06/16 08:56:40;;;;;;;12.48;9.57;;;;;;;;;;5016072;28;20504;-83
2021/06/16 08:59:07;;;;;;;16.60;11.63;;;;;;;;;;5016758;28;20800;-84
2021/06/16 09:01:34;;;;;;;13.68;9.95;;;;;;;;;;5016108;28;20404;-82
2021/06/16 09:04:02;;;;;;;13.02;11.52;;;;;;;;;;5016745;28;20924;-84
2021/06/16 09:06:32;;;;;;;16.35;12.40;;;;;;;;;;5011623;28;20406;-84
2021/06/16 09:09:01;;;;;;;15.70;11.30;;;;;;;;;;5014310;28;20735;-83
2021/06/16 09:11:31;;;;;;;16.27;10.98;;;;;;;;;;5014594;28;20416;-84
2021/06/16 09:14:15;;;;;;;13.73;11.35;;;;;;;;;;5016344;28;20417;-84
2021/06/16 09:16:43;;;;;;;12.35;10.95;;;;;;;;;;5015491;28;20760;-84
2021/06/16 09:19:18;;;;;;;12.63;10.60;;;;;;;;;;5016015;28;20789;-84
2021/06/16 09:21:49;;;;;;;11.35;8.05;;;;;;;;;;5014847;28;20410;-82
2021/06/16 09:24:16;;;;;;;10.57;6.57;;;;;;;;;;5015205;28;20500;-82
2021/06/16 09:26:45;;;;;;;10.13;7.65;;;;;;;;;;5013546;28;20415;-83
2021/06/16 09:29:12;;;;;;;13.90;9.80;;;;;;;;;;5016505;28;20834;-82
2021/06/16 09:31:40;;;;;;;11.55;9.20;;;;;;;;;;5015041;28;20412;-82
2021/06/16 09:34:09;;;;;;;11.07;8.70;;;;;;;;;;5012463;28;20406;-82
2021/06/16 09:36:50;;;;;;;10.02;7.65;;;;;;;;;;5011308;28;20435;-83
2021/06/16 09:39:21;;;;;;;11.55;7.10;;;;;;;;;;5017825;28;20417;-83
2021/06/16 09:42:00;;;;;;;9.40;7.55;;;;;;;;;;5019885;28;20405;-83
2021/06/16 09:44:47;;;;;;;10.98;7.55;;;;;;;;;;5018504;28;20407;-83
2021/06/16 09:47:17;;;;;;;9.85;6.72;;;;;;;;;;5014351;28;20896;-84
2021/06/16 09:49:55;;;;;;;8.93;6.37;;;;;;;;;;5014819;28;20419;-83
2021/06/16 09:52:37;;;;;;;10.60;6.88;;;;;;;;;;5016192;28;20421;-84
2021/06/16 09:55:07;;;;;;;10.18;7.32;;;;;;;;;;5020230;28;20419;-83
2021/06/16 09:57:34;;;;;;;10.77;7.43;;;;;;;;;;5016201;28;20450;-83
2021/06/16 10:00:08;;;;;;;9.52;7.25;;;;;;;;;;5018124;28;20416;-83
2021/06/16 10:02:39;;;;;;;10.05;6.75;;;;;;;;;;5015472;28;20415;-83
2021/06/16 10:05:11;;;;;;;8.55;6.63;;;;;;;;;;5018119;28;20496;-83
2021/06/16 10:07:40;;;;;;;9.27;7.03;;;;;;;;;;5017020;28;21266;-83
2021/06/16 10:10:09;;;;;;;9.70;7.00;;;;;;;;;;5018714;28;20475;-83
2021/06/16 10:12:37;;;;;;;12.43;6.97;;;;;;;;;;5019333;28;20436;-83
2021/06/16 10:15:07;;;;;;;9.53;5.63;;;;;;;;;;5019330;28;20397;-83
2021/06/16 10:17:34;;;;;;;9.43;5.90;;;;;;;;;;5020441;28;20455;-83
2021/06/16 10:20:01;;;;;;;11.27;6.85;;;;;;;;;;5017640;28;20414;-84
2021/06/16 10:22:28;;;;;;;9.95;7.00;;;;;;;;;;5017714;28;20933;-84
2021/06/16 10:24:58;;;;;;;11.00;8.65;;;;;;;;;;5017636;28;20402;-82
2021/06/16 10:27:28;;;;;;;9.80;8.00;;;;;;;;;;5019124;28;20399;-83
2021/06/16 10:30:03;;;;;;;8.68;7.38;;;;;;;;;;5017375;28;20839;-82
2021/06/16 10:32:37;;;;;;;10.55;7.18;;;;;;;;;;5015255;28;20399;-84
2021/06/16 10:35:07;;;;;;;12.00;7.60;;;;;;;;;;5013773;28;20401;-84
2021/06/16 10:37:36;;;;;;;9.43;7.07;;;;;;;;;;5011378;28;20405;-84
2021/06/16 10:40:43;;;;;;;9.07;7.23;;;;;;;;;;5018193;28;20419;-84
2021/06/16 10:43:23;;;;;;;9.00;7.45;;;;;;;;;;5018519;28;20495;-84
2021/06/16 10:45:53;;;;;;;10.43;8.27;;;;;;;;;;5015485;28;20464;-84
2021/06/16 10:48:20;;;;;;;14.60;7.37;;;;;;;;;;5016617;28;20399;-85
2021/06/16 10:51:05;;;;;;;8.90;7.50;;;;;;;;;;5011749;28;20391;-84
2021/06/16 10:53:32;;;;;;;11.02;8.02;;;;;;;;;;5010607;28;20417;-84
2021/06/16 10:56:08;;;;;;;9.68;7.72;;;;;;;;;;5016783;28;20402;-84
2021/06/16 10:58:44;;;;;;;10.15;7.80;;;;;;;;;;5015824;28;20488;-84
2021/06/16 11:01:13;;;;;;;10.50;7.43;;;;;;;;;;5012050;28;20872;-85
2021/06/16 11:04:02;;;;;;;8.98;6.80;;;;;;;;;;5009410;28;20791;-84
2021/06/16 11:06:40;;;;;;;11.05;8.40;;;;;;;;;;5015496;28;20397;-84
2021/06/16 11:09:09;;;;;;;10.07;8.10;;;;;;;;;;5015699;28;20395;-84
2021/06/16 11:12:09;;;;;;;10.27;7.25;;;;;;;;;;5019779;28;20401;-84
2021/06/16 11:14:48;;;;;;;8.70;7.50;;;;;;;;;;5013573;28;20479;-84
2021/06/16 11:17:45;;;;;;;9.93;7.82;;;;;;;;;;5019113;28;20409;-84
2021/06/16 11:20:23;;;;;;;11.95;8.20;;;;;;;;;;5015859;28;20397;-84
2021/06/16 11:22:55;;;;;;;11.98;9.27;;;;;;;;;;5010409;28;20423;-84
2021/06/16 11:25:31;;;;;;;10.25;7.70;;;;;;;;;;5009223;28;20421;-85
2021/06/16 11:28:11;;;;;;;8.37;7.57;;;;;;;;;;5013659;28;20504;-84
2021/06/16 11:30:57;;;;;;;11.35;7.15;;;;;;;;;;5010960;28;20416;-84
2021/06/16 11:33:27;;;;;;;9.37;7.57;;;;;;;;;;4996609;28;20413;-84
2021/06/16 11:35:58;;;;;;;9.82;7.68;;;;;;;;;;5008389;28;20699;-85
2021/06/16 11:38:32;;;;;;;9.23;7.10;;;;;;;;;;5012045;28;20434;-84
2021/06/16 11:41:05;;;;;;;8.40;7.10;;;;;;;;;;5012915;28;20419;-83
2021/06/16 11:43:36;;;;;;;9.50;7.38;;;;;;;;;;5011679;28;20515;-83
2021/06/16 11:46:05;;;;;;;10.40;7.53;;;;;;;;;;5006839;28;20776;-82
2021/06/16 11:48:32;;;;;;;10.90;8.10;;;;;;;;;;5013960;28;20457;-82
2021/06/16 11:50:59;;;;;;;10.47;7.27;;;;;;;;;;5016898;28;21185;-83
2021/06/16 11:53:28;;;;;;;11.80;8.20;;;;;;;;;;5015247;28;20403;-82
2021/06/16 11:55:55;;;;;;;11.88;8.55;;;;;;;;;;5013690;28;20405;-83
2021/06/16 11:58:27;;;;;;;8.25;7.35;;;;;;;;;;5016594;28;20508;-82
2021/06/16 12:01:10;;;;;;;10.80;7.67;;;;;;;;;;5016832;28;21336;-83
2021/06/16 12:03:39;;;;;;;9.63;7.60;;;;;;;;;;5010464;28;20486;-83
2021/06/16 12:06:08;;;;;;;9.57;8.53;;;;;;;;;;5011219;28;20411;-81
2021/06/16 12:08:36;;;;;;;9.30;7.70;;;;;;;;;;5015341;28;20407;-83
2021/06/16 12:11:17;;;;;;;9.52;8.05;;;;;;;;;;5006165;28;21160;-83
2021/06/16 12:13:58;;;;;;;9.57;7.93;;;;;;;;;;5014032;28;20432;-83
2021/06/16 12:16:39;;;;;;;10.90;8.02;;;;;;;;;;5013671;28;20428;-83
2021/06/16 12:19:18;;;;;;;8.97;7.53;;;;;;;;;;5015287;28;20504;-83
2021/06/16 12:21:52;;;;;;;11.38;8.70;;;;;;;;;;5010661;28;20407;-83
2021/06/16 12:24:22;;;;;;;9.80;8.50;;;;;;;;;;5013229;28;20493;-83
2021/06/16 12:27:04;;;;;;;9.00;8.10;;;;;;;;;;5013832;28;20483;-84
2021/06/16 12:29:32;;;;;;;10.25;7.88;;;;;;;;;;5012201;28;20958;-83
2021/06/16 12:32:02;;;;;;;8.43;7.47;;;;;;;;;;5013014;28;20404;-83
2021/06/16 12:34:55;;;;;;;11.35;7.63;;;;;;;;;;5016444;28;20603;-83
2021/06/16 12:37:22;;;;;;;10.40;7.75;;;;;;;;;;5007355;28;20981;-84
2021/06/16 12:39:54;;;;;;;9.45;7.90;;;;;;;;;;5012722;28;20724;-83
2021/06/16 12:42:21;;;;;;;12.35;8.60;;;;;;;;;;5009888;28;20402;-83
2021/06/16 12:44:49;;;;;;;10.90;8.02;;;;;;;;;;5008840;28;20418;-82
2021/06/16 12:47:25;;;;;;;10.13;7.50;;;;;;;;;;5011217;28;20408;-83
2021/06/16 12:49:55;;;;;;;8.83;7.63;;;;;;;;;;5008056;28;20457;-83
2021/06/16 12:52:30;;;;;;;11.63;7.63;;;;;;;;;;5011322;28;20494;-83
2021/06/16 12:55:09;;;;;;;11.80;8.48;;;;;;;;;;5012090;28;20412;-83
2021/06/16 12:57:46;;;;;;;11.00;8.10;;;;;;;;;;5015135;28;20399;-83
2021/06/16 13:00:15;;;;;;;10.27;7.93;;;;;;;;;;5012236;28;20538;-83
2021/06/16 13:02:44;;;;;;;10.38;7.40;;;;;;;;;;5014754;28;20887;-83
2021/06/16 13:05:12;;;;;;;9.20;7.95;;;;;;;;;;5011870;28;20759;-83
2021/06/16 13:07:44;;;;;;;9.23;7.53;;;;;;;;;;5012480;28;20426;-83
2021/06/16 13:10:13;;;;;;;10.90;7.97;;;;;;;;;;5013042;28;20399;-83
2021/06/16 13:12:52;;;;;;;11.10;8.57;;;;;;;;;;5023150;28;20484;-83
2021/06/16 13:15:19;;;;;;;9.13;8.07;;;;;;;;;;5019281;28;20904;-84
2021/06/16 13:17:49;;;;;;;8.52;7.25;;;;;;;;;;5022364;28;20511;-83
2021/06/16 13:20:28;;;;;;;9.23;7.55;;;;;;;;;;5023206;28;20471;-83
2021/06/16 13:22:55;;;;;;;12.15;8.55;;;;;;;;;;5025601;28;20413;-83
2021/06/16 13:25:25;;;;;;;9.60;8.60;;;;;;;;;;5024832;28;20405;-84
2021/06/16 13:27:54;;;;;;;10.85;9.40;;;;;;;;;;5018086;28;20417;-83
2021/06/16 13:30:30;;;;;;;10.55;8.32;;;;;;;;;;5022519;28;20457;-83
2021/06/16 13:32:58;;;;;;;8.93;7.45;;;;;;;;;;5024956;28;20841;-82
2021/06/16 13:35:28;;;;;;;11.80;8.75;;;;;;;;;;5022847;28;21479;-82
2021/06/16 13:37:55;;;;;;;10.27;8.20;;;;;;;;;;5023571;28;20606;-82
2021/06/16 13:40:22;;;;;;;10.57;7.97;;;;;;;;;;5025275;28;20892;-83
2021/06/16 13:42:52;;;;;;;10.43;7.72;;;;;;;;;;5021909;28;20403;-83
2021/06/16 13:45:19;;;;;;;9.63;7.40;;;;;;;;;;5015548;28;20748;-83
2021/06/16 13:47:47;;;;;;;11.90;9.07;;;;;;;;;;5018134;28;20405;-83
2021/06/16 13:50:16;;;;;;;9.90;9.00;;;;;;;;;;5015478;28;20433;-83
2021/06/16 13:52:43;;;;;;;12.43;8.68;;;;;;;;;;5017603;28;20485;-83
2021/06/16 13:55:12;;;;;;;10.70;7.90;;;;;;;;;;5015028;28;20415;-83
2021/06/16 13:57:39;;;;;;;9.23;7.50;;;;;;;;;;5013318;28;20425;-83
2021/06/16 14:00:09;;;;;;;8.02;7.28;;;;;;;;;;5015664;28;20491;-83
2021/06/16 14:02:36;;;;;;;10.10;8.05;;;;;;;;;;5011999;28;20787;-83
2021/06/16 14:05:04;;;;;;;9.70;8.43;;;;;;;;;;5012908;28;20481;-83
2021/06/16 14:07:32;;;;;;;11.25;7.70;;;;;;;;;;5011720;28;20624;-82
2021/06/16 14:09:59;;;;;;;9.73;8.13;;;;;;;;;;5010212;28;20421;-83
2021/06/16 14:12:26;;;;;;;9.57;8.07;;;;;;;;;;5008682;28;20421;-82
2021/06/16 14:14:53;;;;;;;9.95;8.60;;;;;;;;;;5014289;28;20484;-81
2021/06/16 14:17:20;;;;;;;10.07;7.83;;;;;;;;;;5008108;28;20794;-80
2021/06/16 14:19:47;;;;;;;9.73;7.45;;;;;;;;;;5011443;28;20421;-81
2021/06/16 14:22:15;;;;;;;9.32;7.50;;;;;;;;;;5011918;28;20469;-81
2021/06/16 14:24:43;;;;;;;8.20;7.40;;;;;;;;;;5008989;28;20415;-82
2021/06/16 14:27:10;;;;;;;7.60;6.90;;;;;;;;;;5012496;28;20439;-81
2021/06/16 14:29:37;;;;;;;7.95;7.10;;;;;;;;;;5020225;28;20402;-83
2021/06/16 14:32:06;;;;;;;9.82;7.55;;;;;;;;;;5013359;28;20470;-81
2021/06/16 14:34:33;;;;;;;10.40;7.70;;;;;;;;;;5014715;28;20792;-83
2021/06/16 14:37:00;;;;;;;8.48;7.63;;;;;;;;;;5019427;28;20773;-84